sensor_id;sensor_type;location;lat;lon;timestamp;P1;durP1;ratioP1;P2;durP2;ratioP2
57025;SDS011;43961;52.940;6.834;2022-07-23T00:01:18;7.53;;;4.93;;
57025;SDS011;43961;52.940;6.834;2022-07-23T00:03:43;4.90;;;4.38;;
57025;SDS011;43961;52.940;6.834;2022-07-23T00:06:10;11.88;;;5.30;;
57025;SDS011;43961;52.940;6.834;2022-07-23T00:08:36;4.88;;;4.03;;
57025;SDS011;43961;52.940;6.834;2022-07-23T00:11:02;6.75;;;4.55;;
57025;SDS011;43961;52.940;6.834;2022-07-23T00:13:27;7.97;;;4.72;;
57025;SDS011;43961;52.940;6.834;2022-07-23T00:15:53;6.30;;;4.47;;
57025;SDS011;43961;52.940;6.834;2022-07-23T00:18:19;5.47;;;4.53;;
57025;SDS011;43961;52.940;6.834;2022-07-23T00:20:45;6.32;;;4.60;;
57025;SDS011;43961;52.940;6.834;2022-07-23T00:23:10;7.45;;;4.85;;
57025;SDS011;43961;52.940;6.834;2022-07-23T00:25:36;10.32;;;5.30;;
57025;SDS011;43961;52.940;6.834;2022-07-23T00:28:02;6.25;;;4.25;;
57025;SDS011;43961;52.940;6.834;2022-07-23T00:30:28;6.75;;;4.45;;
57025;SDS011;43961;52.940;6.834;2022-07-23T00:32:56;5.25;;;4.75;;
57025;SDS011;43961;52.940;6.834;2022-07-23T00:35:23;7.70;;;4.57;;
57025;SDS011;43961;52.940;6.834;2022-07-23T00:37:50;7.18;;;5.03;;
57025;SDS011;43961;52.940;6.834;2022-07-23T00:40:16;7.55;;;4.10;;
57025;SDS011;43961;52.940;6.834;2022-07-23T00:42:42;5.85;;;4.78;;
57025;SDS011;43961;52.940;6.834;2022-07-23T00:45:08;6.47;;;4.53;;
57025;SDS011;43961;52.940;6.834;2022-07-23T00:47:34;5.40;;;4.90;;
57025;SDS011;43961;52.940;6.834;2022-07-23T00:50:01;7.55;;;4.43;;
57025;SDS011;43961;52.940;6.834;2022-07-23T00:52:29;7.88;;;4.47;;
57025;SDS011;43961;52.940;6.834;2022-07-23T00:54:56;3.80;;;3.53;;
57025;SDS011;43961;52.940;6.834;2022-07-23T00:57:22;5.57;;;4.22;;
57025;SDS011;43961;52.940;6.834;2022-07-23T00:59:48;5.07;;;4.57;;
57025;SDS011;43961;52.940;6.834;2022-07-23T01:02:13;6.38;;;5.30;;
57025;SDS011;43961;52.940;6.834;2022-07-23T01:04:39;5.60;;;5.10;;
57025;SDS011;43961;52.940;6.834;2022-07-23T01:07:05;6.85;;;5.18;;
57025;SDS011;43961;52.940;6.834;2022-07-23T01:09:31;8.15;;;6.10;;
57025;SDS011;43961;52.940;6.834;2022-07-23T01:11:57;11.10;;;5.65;;
57025;SDS011;43961;52.940;6.834;2022-07-23T01:14:23;9.82;;;4.60;;
57025;SDS011;43961;52.940;6.834;2022-07-23T01:16:49;9.48;;;5.40;;
57025;SDS011;43961;52.940;6.834;2022-07-23T01:19:15;7.97;;;5.70;;
57025;SDS011;43961;52.940;6.834;2022-07-23T01:21:46;6.25;;;5.65;;
57025;SDS011;43961;52.940;6.834;2022-07-23T01:24:13;11.77;;;5.63;;
57025;SDS011;43961;52.940;6.834;2022-07-23T01:26:41;7.35;;;6.38;;
57025;SDS011;43961;52.940;6.834;2022-07-23T01:29:08;7.38;;;6.63;;
57025;SDS011;43961;52.940;6.834;2022-07-23T01:31:34;6.75;;;5.78;;
57025;SDS011;43961;52.940;6.834;2022-07-23T01:33:59;17.98;;;5.85;;
57025;SDS011;43961;52.940;6.834;2022-07-23T01:36:25;7.22;;;5.68;;
57025;SDS011;43961;52.940;6.834;2022-07-23T01:38:51;11.40;;;6.50;;
57025;SDS011;43961;52.940;6.834;2022-07-23T01:41:17;7.43;;;6.72;;
57025;SDS011;43961;52.940;6.834;2022-07-23T01:43:42;8.38;;;5.50;;
57025;SDS011;43961;52.940;6.834;2022-07-23T01:46:08;11.15;;;6.05;;
57025;SDS011;43961;52.940;6.834;2022-07-23T01:48:34;8.30;;;4.95;;
57025;SDS011;43961;52.940;6.834;2022-07-23T01:51:00;9.52;;;5.70;;
57025;SDS011;43961;52.940;6.834;2022-07-23T01:53:27;8.27;;;5.72;;
57025;SDS011;43961;52.940;6.834;2022-07-23T01:55:56;7.85;;;7.03;;
57025;SDS011;43961;52.940;6.834;2022-07-23T01:58:22;9.68;;;6.30;;
57025;SDS011;43961;52.940;6.834;2022-07-23T02:00:48;10.88;;;5.82;;
57025;SDS011;43961;52.940;6.834;2022-07-23T02:03:13;12.10;;;6.05;;
57025;SDS011;43961;52.940;6.834;2022-07-23T02:05:39;9.98;;;6.65;;
57025;SDS011;43961;52.940;6.834;2022-07-23T02:08:05;8.93;;;6.35;;
57025;SDS011;43961;52.940;6.834;2022-07-23T02:10:31;8.20;;;6.32;;
57025;SDS011;43961;52.940;6.834;2022-07-23T02:12:56;8.02;;;6.97;;
57025;SDS011;43961;52.940;6.834;2022-07-23T02:15:22;6.80;;;5.63;;
57025;SDS011;43961;52.940;6.834;2022-07-23T02:17:48;14.63;;;7.22;;
57025;SDS011;43961;52.940;6.834;2022-07-23T02:20:14;7.80;;;6.00;;
57025;SDS011;43961;52.940;6.834;2022-07-23T02:22:39;8.07;;;5.63;;
57025;SDS011;43961;52.940;6.834;2022-07-23T02:25:05;7.32;;;6.22;;
57025;SDS011;43961;52.940;6.834;2022-07-23T02:27:31;7.05;;;5.85;;
57025;SDS011;43961;52.940;6.834;2022-07-23T02:29:57;6.88;;;6.20;;
57025;SDS011;43961;52.940;6.834;2022-07-23T02:32:23;13.30;;;5.85;;
57025;SDS011;43961;52.940;6.834;2022-07-23T02:34:49;8.85;;;6.18;;
57025;SDS011;43961;52.940;6.834;2022-07-23T02:37:15;9.43;;;5.47;;
57025;SDS011;43961;52.940;6.834;2022-07-23T02:39:41;8.02;;;5.68;;
57025;SDS011;43961;52.940;6.834;2022-07-23T02:42:07;6.55;;;5.82;;
57025;SDS011;43961;52.940;6.834;2022-07-23T02:44:33;6.70;;;5.65;;
57025;SDS011;43961;52.940;6.834;2022-07-23T02:46:59;10.18;;;6.05;;
57025;SDS011;43961;52.940;6.834;2022-07-23T02:49:25;4.88;;;4.18;;
57025;SDS011;43961;52.940;6.834;2022-07-23T02:51:51;6.40;;;5.00;;
57025;SDS011;43961;52.940;6.834;2022-07-23T02:54:17;7.22;;;5.75;;
57025;SDS011;43961;52.940;6.834;2022-07-23T02:56:42;6.68;;;4.50;;
57025;SDS011;43961;52.940;6.834;2022-07-23T02:59:08;7.78;;;5.32;;
57025;SDS011;43961;52.940;6.834;2022-07-23T03:01:34;6.03;;;5.43;;
57025;SDS011;43961;52.940;6.834;2022-07-23T03:04:00;7.10;;;6.05;;
57025;SDS011;43961;52.940;6.834;2022-07-23T03:06:26;6.07;;;5.13;;
57025;SDS011;43961;52.940;6.834;2022-07-23T03:08:51;6.43;;;5.80;;
57025;SDS011;43961;52.940;6.834;2022-07-23T03:11:17;7.80;;;6.85;;
57025;SDS011;43961;52.940;6.834;2022-07-23T03:13:43;5.82;;;5.03;;
57025;SDS011;43961;52.940;6.834;2022-07-23T03:16:08;6.13;;;5.53;;
57025;SDS011;43961;52.940;6.834;2022-07-23T03:18:34;5.68;;;5.03;;
57025;SDS011;43961;52.940;6.834;2022-07-23T03:21:00;6.50;;;5.80;;
57025;SDS011;43961;52.940;6.834;2022-07-23T03:23:26;7.05;;;5.70;;
57025;SDS011;43961;52.940;6.834;2022-07-23T03:25:51;6.93;;;5.55;;
57025;SDS011;43961;52.940;6.834;2022-07-23T03:28:17;9.60;;;5.78;;
57025;SDS011;43961;52.940;6.834;2022-07-23T03:30:44;14.27;;;5.93;;
57025;SDS011;43961;52.940;6.834;2022-07-23T03:33:14;6.15;;;5.38;;
57025;SDS011;43961;52.940;6.834;2022-07-23T03:35:41;7.13;;;5.43;;
57025;SDS011;43961;52.940;6.834;2022-07-23T03:38:08;8.15;;;5.18;;
57025;SDS011;43961;52.940;6.834;2022-07-23T03:40:34;6.55;;;5.70;;
57025;SDS011;43961;52.940;6.834;2022-07-23T03:42:59;6.80;;;5.70;;
57025;SDS011;43961;52.940;6.834;2022-07-23T03:45:25;7.22;;;5.80;;
57025;SDS011;43961;52.940;6.834;2022-07-23T03:47:51;6.75;;;5.45;;
57025;SDS011;43961;52.940;6.834;2022-07-23T03:50:16;5.03;;;4.57;;
57025;SDS011;43961;52.940;6.834;2022-07-23T03:52:42;8.10;;;5.10;;
57025;SDS011;43961;52.940;6.834;2022-07-23T03:55:08;5.82;;;4.90;;
57025;SDS011;43961;52.940;6.834;2022-07-23T03:57:34;5.30;;;4.28;;
57025;SDS011;43961;52.940;6.834;2022-07-23T04:00:00;8.68;;;5.50;;
57025;SDS011;43961;52.940;6.834;2022-07-23T04:02:26;8.30;;;5.00;;
57025;SDS011;43961;52.940;6.834;2022-07-23T04:04:52;9.27;;;6.15;;
57025;SDS011;43961;52.940;6.834;2022-07-23T04:07:17;6.07;;;4.82;;
57025;SDS011;43961;52.940;6.834;2022-07-23T04:09:43;6.72;;;5.43;;
57025;SDS011;43961;52.940;6.834;2022-07-23T04:12:09;7.97;;;6.40;;
57025;SDS011;43961;52.940;6.834;2022-07-23T04:14:35;10.57;;;6.53;;
57025;SDS011;43961;52.940;6.834;2022-07-23T04:17:01;6.55;;;5.90;;
57025;SDS011;43961;52.940;6.834;2022-07-23T04:19:28;9.02;;;6.82;;
57025;SDS011;43961;52.940;6.834;2022-07-23T04:21:55;7.63;;;6.28;;
57025;SDS011;43961;52.940;6.834;2022-07-23T04:24:21;9.18;;;6.95;;
57025;SDS011;43961;52.940;6.834;2022-07-23T04:26:47;9.07;;;7.25;;
57025;SDS011;43961;52.940;6.834;2022-07-23T04:29:12;8.27;;;6.60;;
57025;SDS011;43961;52.940;6.834;2022-07-23T04:31:38;7.20;;;6.10;;
57025;SDS011;43961;52.940;6.834;2022-07-23T04:34:04;9.00;;;6.75;;
57025;SDS011;43961;52.940;6.834;2022-07-23T04:36:29;9.82;;;6.75;;
57025;SDS011;43961;52.940;6.834;2022-07-23T04:38:55;6.68;;;5.47;;
57025;SDS011;43961;52.940;6.834;2022-07-23T04:41:22;8.85;;;7.20;;
57025;SDS011;43961;52.940;6.834;2022-07-23T04:43:48;8.00;;;6.78;;
57025;SDS011;43961;52.940;6.834;2022-07-23T04:46:14;7.43;;;6.07;;
57025;SDS011;43961;52.940;6.834;2022-07-23T04:48:39;11.50;;;6.35;;
57025;SDS011;43961;52.940;6.834;2022-07-23T04:51:07;9.15;;;6.25;;
57025;SDS011;43961;52.940;6.834;2022-07-23T04:53:32;8.32;;;6.65;;
57025;SDS011;43961;52.940;6.834;2022-07-23T04:55:58;10.00;;;6.03;;
57025;SDS011;43961;52.940;6.834;2022-07-23T04:58:23;9.75;;;7.53;;
57025;SDS011;43961;52.940;6.834;2022-07-23T05:00:49;8.23;;;6.13;;
57025;SDS011;43961;52.940;6.834;2022-07-23T05:03:15;8.25;;;6.93;;
57025;SDS011;43961;52.940;6.834;2022-07-23T05:05:40;8.27;;;7.30;;
57025;SDS011;43961;52.940;6.834;2022-07-23T05:08:07;10.18;;;7.70;;
57025;SDS011;43961;52.940;6.834;2022-07-23T05:10:32;11.63;;;7.50;;
57025;SDS011;43961;52.940;6.834;2022-07-23T05:12:58;8.50;;;6.35;;
57025;SDS011;43961;52.940;6.834;2022-07-23T05:15:24;16.98;;;7.63;;
57025;SDS011;43961;52.940;6.834;2022-07-23T05:17:49;11.25;;;7.25;;
57025;SDS011;43961;52.940;6.834;2022-07-23T05:20:15;12.52;;;6.82;;
57025;SDS011;43961;52.940;6.834;2022-07-23T05:22:41;10.77;;;6.68;;
57025;SDS011;43961;52.940;6.834;2022-07-23T05:25:07;10.15;;;7.60;;
57025;SDS011;43961;52.940;6.834;2022-07-23T05:27:33;11.30;;;8.02;;
57025;SDS011;43961;52.940;6.834;2022-07-23T05:29:59;10.40;;;7.57;;
57025;SDS011;43961;52.940;6.834;2022-07-23T05:32:24;8.70;;;7.57;;
57025;SDS011;43961;52.940;6.834;2022-07-23T05:34:50;10.35;;;7.10;;
57025;SDS011;43961;52.940;6.834;2022-07-23T05:37:16;19.73;;;8.18;;
57025;SDS011;43961;52.940;6.834;2022-07-23T05:39:42;8.93;;;7.72;;
57025;SDS011;43961;52.940;6.834;2022-07-23T05:42:08;15.20;;;7.43;;
57025;SDS011;43961;52.940;6.834;2022-07-23T05:44:33;13.02;;;7.22;;
57025;SDS011;43961;52.940;6.834;2022-07-23T05:46:59;13.35;;;7.65;;
57025;SDS011;43961;52.940;6.834;2022-07-23T05:49:25;21.10;;;7.43;;
57025;SDS011;43961;52.940;6.834;2022-07-23T05:51:50;12.88;;;7.28;;
57025;SDS011;43961;52.940;6.834;2022-07-23T05:54:16;27.42;;;6.90;;
57025;SDS011;43961;52.940;6.834;2022-07-23T05:56:42;9.23;;;6.35;;
57025;SDS011;43961;52.940;6.834;2022-07-23T05:59:08;15.57;;;6.90;;
57025;SDS011;43961;52.940;6.834;2022-07-23T06:01:34;11.68;;;7.00;;
57025;SDS011;43961;52.940;6.834;2022-07-23T06:03:59;13.07;;;6.72;;
57025;SDS011;43961;52.940;6.834;2022-07-23T06:06:25;20.35;;;7.20;;
57025;SDS011;43961;52.940;6.834;2022-07-23T06:08:51;10.82;;;7.35;;
57025;SDS011;43961;52.940;6.834;2022-07-23T06:11:17;8.35;;;6.00;;
57025;SDS011;43961;52.940;6.834;2022-07-23T06:13:43;14.20;;;5.95;;
57025;SDS011;43961;52.940;6.834;2022-07-23T06:16:10;6.80;;;5.10;;
57025;SDS011;43961;52.940;6.834;2022-07-23T06:18:35;12.75;;;6.55;;
57025;SDS011;43961;52.940;6.834;2022-07-23T06:21:01;7.05;;;6.32;;
57025;SDS011;43961;52.940;6.834;2022-07-23T06:23:27;9.50;;;5.13;;
57025;SDS011;43961;52.940;6.834;2022-07-23T06:25:52;7.93;;;5.75;;
57025;SDS011;43961;52.940;6.834;2022-07-23T06:28:18;7.97;;;5.13;;
57025;SDS011;43961;52.940;6.834;2022-07-23T06:30:45;7.00;;;5.28;;
57025;SDS011;43961;52.940;6.834;2022-07-23T06:33:11;10.38;;;5.75;;
57025;SDS011;43961;52.940;6.834;2022-07-23T06:35:37;8.02;;;4.15;;
57025;SDS011;43961;52.940;6.834;2022-07-23T06:38:04;15.75;;;5.07;;
57025;SDS011;43961;52.940;6.834;2022-07-23T06:40:29;8.15;;;5.18;;
57025;SDS011;43961;52.940;6.834;2022-07-23T06:42:55;5.03;;;4.53;;
57025;SDS011;43961;52.940;6.834;2022-07-23T06:45:21;10.40;;;4.72;;
57025;SDS011;43961;52.940;6.834;2022-07-23T06:47:47;7.60;;;4.53;;
57025;SDS011;43961;52.940;6.834;2022-07-23T06:50:12;6.63;;;3.78;;
57025;SDS011;43961;52.940;6.834;2022-07-23T06:52:38;7.63;;;4.68;;
57025;SDS011;43961;52.940;6.834;2022-07-23T06:55:04;5.05;;;3.95;;
57025;SDS011;43961;52.940;6.834;2022-07-23T06:57:30;4.30;;;3.10;;
57025;SDS011;43961;52.940;6.834;2022-07-23T06:59:55;5.88;;;4.05;;
57025;SDS011;43961;52.940;6.834;2022-07-23T07:02:23;3.88;;;3.30;;
57025;SDS011;43961;52.940;6.834;2022-07-23T07:04:49;6.68;;;3.17;;
57025;SDS011;43961;52.940;6.834;2022-07-23T07:07:15;4.95;;;2.83;;
57025;SDS011;43961;52.940;6.834;2022-07-23T07:09:40;3.92;;;2.30;;
57025;SDS011;43961;52.940;6.834;2022-07-23T07:12:08;2.65;;;2.17;;
57025;SDS011;43961;52.940;6.834;2022-07-23T07:14:34;3.15;;;2.80;;
57025;SDS011;43961;52.940;6.834;2022-07-23T07:16:59;2.65;;;2.45;;
57025;SDS011;43961;52.940;6.834;2022-07-23T07:19:25;2.10;;;1.88;;
57025;SDS011;43961;52.940;6.834;2022-07-23T07:21:50;8.20;;;2.22;;
57025;SDS011;43961;52.940;6.834;2022-07-23T07:24:16;4.60;;;1.77;;
57025;SDS011;43961;52.940;6.834;2022-07-23T07:26:42;2.10;;;1.83;;
57025;SDS011;43961;52.940;6.834;2022-07-23T07:29:07;2.35;;;1.75;;
57025;SDS011;43961;52.940;6.834;2022-07-23T07:31:33;2.20;;;1.65;;
57025;SDS011;43961;52.940;6.834;2022-07-23T07:33:58;3.03;;;1.90;;
57025;SDS011;43961;52.940;6.834;2022-07-23T07:36:24;3.40;;;2.00;;
57025;SDS011;43961;52.940;6.834;2022-07-23T07:38:50;1.70;;;1.60;;
57025;SDS011;43961;52.940;6.834;2022-07-23T07:41:16;3.70;;;1.40;;
57025;SDS011;43961;52.940;6.834;2022-07-23T07:43:41;2.78;;;2.03;;
57025;SDS011;43961;52.940;6.834;2022-07-23T07:46:07;2.00;;;1.40;;
57025;SDS011;43961;52.940;6.834;2022-07-23T07:48:39;4.75;;;1.95;;
57025;SDS011;43961;52.940;6.834;2022-07-23T07:51:05;1.13;;;1.02;;
57025;SDS011;43961;52.940;6.834;2022-07-23T07:53:30;1.30;;;1.20;;
57025;SDS011;43961;52.940;6.834;2022-07-23T07:55:56;3.38;;;1.40;;
57025;SDS011;43961;52.940;6.834;2022-07-23T07:58:22;5.20;;;1.30;;
57025;SDS011;43961;52.940;6.834;2022-07-23T08:00:47;1.70;;;1.35;;
57025;SDS011;43961;52.940;6.834;2022-07-23T08:03:13;4.07;;;1.83;;
57025;SDS011;43961;52.940;6.834;2022-07-23T08:05:40;4.55;;;2.20;;
57025;SDS011;43961;52.940;6.834;2022-07-23T08:08:05;3.92;;;2.38;;
57025;SDS011;43961;52.940;6.834;2022-07-23T08:10:31;3.63;;;1.83;;
57025;SDS011;43961;52.940;6.834;2022-07-23T08:12:57;2.22;;;1.67;;
57025;SDS011;43961;52.940;6.834;2022-07-23T08:15:24;3.72;;;1.63;;
57025;SDS011;43961;52.940;6.834;2022-07-23T08:17:51;2.17;;;1.63;;
57025;SDS011;43961;52.940;6.834;2022-07-23T08:20:18;3.35;;;2.00;;
57025;SDS011;43961;52.940;6.834;2022-07-23T08:22:46;1.63;;;1.45;;
57025;SDS011;43961;52.940;6.834;2022-07-23T08:25:20;5.53;;;2.03;;
57025;SDS011;43961;52.940;6.834;2022-07-23T08:27:52;3.58;;;2.00;;
57025;SDS011;43961;52.940;6.834;2022-07-23T08:30:18;1.60;;;1.50;;
57025;SDS011;43961;52.940;6.834;2022-07-23T08:32:47;2.63;;;1.90;;
57025;SDS011;43961;52.940;6.834;2022-07-23T08:35:13;4.07;;;1.90;;
57025;SDS011;43961;52.940;6.834;2022-07-23T08:37:39;1.45;;;1.35;;
57025;SDS011;43961;52.940;6.834;2022-07-23T08:40:05;2.70;;;1.65;;
57025;SDS011;43961;52.940;6.834;2022-07-23T08:42:31;1.50;;;1.23;;
57025;SDS011;43961;52.940;6.834;2022-07-23T08:45:00;2.90;;;1.75;;
57025;SDS011;43961;52.940;6.834;2022-07-23T08:47:28;3.53;;;2.05;;
57025;SDS011;43961;52.940;6.834;2022-07-23T08:49:58;2.97;;;1.80;;
57025;SDS011;43961;52.940;6.834;2022-07-23T08:52:24;1.80;;;1.53;;
57025;SDS011;43961;52.940;6.834;2022-07-23T08:54:51;1.77;;;1.67;;
57025;SDS011;43961;52.940;6.834;2022-07-23T08:57:18;1.63;;;1.53;;
57025;SDS011;43961;52.940;6.834;2022-07-23T08:59:44;1.75;;;1.42;;
57025;SDS011;43961;52.940;6.834;2022-07-23T09:02:10;1.30;;;1.20;;
57025;SDS011;43961;52.940;6.834;2022-07-23T09:04:38;1.70;;;1.60;;
57025;SDS011;43961;52.940;6.834;2022-07-23T09:07:04;1.27;;;1.23;;
57025;SDS011;43961;52.940;6.834;2022-07-23T09:09:30;4.18;;;1.70;;
57025;SDS011;43961;52.940;6.834;2022-07-23T09:12:09;1.92;;;1.52;;
57025;SDS011;43961;52.940;6.834;2022-07-23T09:14:39;4.30;;;1.42;;
57025;SDS011;43961;52.940;6.834;2022-07-23T09:17:13;1.52;;;1.42;;
57025;SDS011;43961;52.940;6.834;2022-07-23T09:19:41;1.85;;;1.42;;
57025;SDS011;43961;52.940;6.834;2022-07-23T09:30:19;5.60;;;1.60;;
57025;SDS011;43961;52.940;6.834;2022-07-23T09:38:20;1.40;;;1.30;;
57025;SDS011;43961;52.940;6.834;2022-07-23T09:40:47;1.48;;;1.20;;
57025;SDS011;43961;52.940;6.834;2022-07-23T09:43:33;1.33;;;1.23;;
57025;SDS011;43961;52.940;6.834;2022-07-23T09:48:44;1.70;;;1.60;;
57025;SDS011;43961;52.940;6.834;2022-07-23T09:51:11;2.03;;;1.38;;
57025;SDS011;43961;52.940;6.834;2022-07-23T09:53:37;2.22;;;1.52;;
57025;SDS011;43961;52.940;6.834;2022-07-23T09:56:03;1.42;;;1.15;;
57025;SDS011;43961;52.940;6.834;2022-07-23T09:58:30;1.75;;;1.55;;
57025;SDS011;43961;52.940;6.834;2022-07-23T10:00:56;3.67;;;1.23;;
57025;SDS011;43961;52.940;6.834;2022-07-23T10:03:23;7.00;;;1.67;;
57025;SDS011;43961;52.940;6.834;2022-07-23T10:05:49;3.05;;;1.55;;
57025;SDS011;43961;52.940;6.834;2022-07-23T10:08:18;2.38;;;1.65;;
57025;SDS011;43961;52.940;6.834;2022-07-23T10:10:47;1.30;;;1.10;;
57025;SDS011;43961;52.940;6.834;2022-07-23T10:13:14;2.25;;;1.98;;
57025;SDS011;43961;52.940;6.834;2022-07-23T10:15:52;2.90;;;1.50;;
57025;SDS011;43961;52.940;6.834;2022-07-23T10:18:19;7.30;;;2.08;;
57025;SDS011;43961;52.940;6.834;2022-07-23T10:20:45;1.50;;;1.40;;
57025;SDS011;43961;52.940;6.834;2022-07-23T10:23:31;4.20;;;1.58;;
57025;SDS011;43961;52.940;6.834;2022-07-23T10:26:14;6.13;;;2.15;;
57025;SDS011;43961;52.940;6.834;2022-07-23T10:36:54;2.15;;;1.50;;
57025;SDS011;43961;52.940;6.834;2022-07-23T10:39:29;2.67;;;1.48;;
57025;SDS011;43961;52.940;6.834;2022-07-23T10:42:10;6.50;;;1.67;;
57025;SDS011;43961;52.940;6.834;2022-07-23T10:44:42;1.60;;;1.48;;
57025;SDS011;43961;52.940;6.834;2022-07-23T10:47:09;7.70;;;2.00;;
57025;SDS011;43961;52.940;6.834;2022-07-23T10:49:35;2.38;;;1.50;;
57025;SDS011;43961;52.940;6.834;2022-07-23T10:54:49;1.67;;;1.48;;
57025;SDS011;43961;52.940;6.834;2022-07-23T10:57:21;1.42;;;1.30;;
57025;SDS011;43961;52.940;6.834;2022-07-23T11:02:38;1.92;;;1.40;;
57025;SDS011;43961;52.940;6.834;2022-07-23T11:07:32;1.40;;;1.30;;
57025;SDS011;43961;52.940;6.834;2022-07-23T11:09:58;1.90;;;1.23;;
57025;SDS011;43961;52.940;6.834;2022-07-23T11:15:09;1.55;;;1.35;;
57025;SDS011;43961;52.940;6.834;2022-07-23T11:25:13;2.22;;;1.83;;
57025;SDS011;43961;52.940;6.834;2022-07-23T11:27:49;1.80;;;1.70;;
57025;SDS011;43961;52.940;6.834;2022-07-23T11:32:54;1.83;;;1.70;;
57025;SDS011;43961;52.940;6.834;2022-07-23T11:35:41;3.70;;;2.30;;
57025;SDS011;43961;52.940;6.834;2022-07-23T11:38:12;2.65;;;2.00;;
57025;SDS011;43961;52.940;6.834;2022-07-23T11:40:40;5.15;;;2.13;;
57025;SDS011;43961;52.940;6.834;2022-07-23T11:43:09;1.90;;;1.80;;
57025;SDS011;43961;52.940;6.834;2022-07-23T11:45:37;4.97;;;2.17;;
57025;SDS011;43961;52.940;6.834;2022-07-23T11:48:05;2.35;;;2.15;;
57025;SDS011;43961;52.940;6.834;2022-07-23T11:50:34;2.17;;;1.98;;
57025;SDS011;43961;52.940;6.834;2022-07-23T11:53:02;3.70;;;2.35;;
57025;SDS011;43961;52.940;6.834;2022-07-23T11:55:28;5.60;;;2.20;;
57025;SDS011;43961;52.940;6.834;2022-07-23T11:57:54;2.50;;;2.30;;
57025;SDS011;43961;52.940;6.834;2022-07-23T12:00:24;3.13;;;2.40;;
57025;SDS011;43961;52.940;6.834;2022-07-23T12:02:53;4.30;;;2.70;;
57025;SDS011;43961;52.940;6.834;2022-07-23T12:05:25;3.88;;;2.22;;
57025;SDS011;43961;52.940;6.834;2022-07-23T12:07:59;2.70;;;2.50;;
57025;SDS011;43961;52.940;6.834;2022-07-23T12:10:30;6.60;;;2.40;;
57025;SDS011;43961;52.940;6.834;2022-07-23T12:13:04;3.33;;;2.72;;
57025;SDS011;43961;52.940;6.834;2022-07-23T12:15:33;3.25;;;2.95;;
57025;SDS011;43961;52.940;6.834;2022-07-23T12:18:02;5.97;;;2.63;;
57025;SDS011;43961;52.940;6.834;2022-07-23T12:20:36;3.22;;;1.95;;
57025;SDS011;43961;52.940;6.834;2022-07-23T12:23:08;2.17;;;1.98;;
57025;SDS011;43961;52.940;6.834;2022-07-23T12:28:06;2.67;;;2.38;;
57025;SDS011;43961;52.940;6.834;2022-07-23T12:30:40;3.10;;;2.30;;
57025;SDS011;43961;52.940;6.834;2022-07-23T12:33:11;3.78;;;2.40;;
57025;SDS011;43961;52.940;6.834;2022-07-23T12:35:39;2.33;;;2.17;;
57025;SDS011;43961;52.940;6.834;2022-07-23T12:38:08;2.85;;;2.50;;
57025;SDS011;43961;52.940;6.834;2022-07-23T12:40:43;4.45;;;2.97;;
57025;SDS011;43961;52.940;6.834;2022-07-23T12:43:22;7.80;;;2.85;;
57025;SDS011;43961;52.940;6.834;2022-07-23T12:45:51;2.72;;;2.20;;
57025;SDS011;43961;52.940;6.834;2022-07-23T12:48:28;8.68;;;2.72;;
57025;SDS011;43961;52.940;6.834;2022-07-23T12:53:44;3.40;;;2.50;;
57025;SDS011;43961;52.940;6.834;2022-07-23T12:56:14;3.10;;;2.80;;
57025;SDS011;43961;52.940;6.834;2022-07-23T13:01:34;3.53;;;2.65;;
57025;SDS011;43961;52.940;6.834;2022-07-23T13:04:05;2.80;;;2.60;;
57025;SDS011;43961;52.940;6.834;2022-07-23T13:06:36;3.83;;;3.03;;
57025;SDS011;43961;52.940;6.834;2022-07-23T13:11:31;3.97;;;3.20;;
57025;SDS011;43961;52.940;6.834;2022-07-23T13:13:56;2.78;;;2.58;;
57025;SDS011;43961;52.940;6.834;2022-07-23T13:16:22;2.30;;;2.10;;
57025;SDS011;43961;52.940;6.834;2022-07-23T13:18:48;10.70;;;3.58;;
57025;SDS011;43961;52.940;6.834;2022-07-23T13:21:14;5.18;;;2.53;;
57025;SDS011;43961;52.940;6.834;2022-07-23T13:23:40;2.63;;;2.42;;
57025;SDS011;43961;52.940;6.834;2022-07-23T13:26:07;3.03;;;2.80;;
57025;SDS011;43961;52.940;6.834;2022-07-23T13:28:32;6.35;;;2.85;;
57025;SDS011;43961;52.940;6.834;2022-07-23T13:30:58;4.00;;;2.55;;
57025;SDS011;43961;52.940;6.834;2022-07-23T13:33:24;3.75;;;2.60;;
57025;SDS011;43961;52.940;6.834;2022-07-23T13:35:51;2.22;;;2.13;;
57025;SDS011;43961;52.940;6.834;2022-07-23T13:38:18;3.58;;;2.65;;
57025;SDS011;43961;52.940;6.834;2022-07-23T13:40:46;4.75;;;3.15;;
57025;SDS011;43961;52.940;6.834;2022-07-23T13:43:14;5.97;;;3.15;;
57025;SDS011;43961;52.940;6.834;2022-07-23T13:45:43;2.25;;;2.05;;
57025;SDS011;43961;52.940;6.834;2022-07-23T13:48:09;6.35;;;3.38;;
57025;SDS011;43961;52.940;6.834;2022-07-23T13:50:37;3.80;;;2.70;;
57025;SDS011;43961;52.940;6.834;2022-07-23T13:53:04;3.08;;;2.88;;
57025;SDS011;43961;52.940;6.834;2022-07-23T13:55:32;3.22;;;2.92;;
57025;SDS011;43961;52.940;6.834;2022-07-23T13:57:58;8.32;;;2.80;;
57025;SDS011;43961;52.940;6.834;2022-07-23T14:00:25;4.05;;;3.28;;
57025;SDS011;43961;52.940;6.834;2022-07-23T14:02:51;3.83;;;3.13;;
57025;SDS011;43961;52.940;6.834;2022-07-23T14:05:17;5.55;;;2.92;;
57025;SDS011;43961;52.940;6.834;2022-07-23T14:07:43;3.45;;;3.15;;
57025;SDS011;43961;52.940;6.834;2022-07-23T14:10:11;2.95;;;2.75;;
57025;SDS011;43961;52.940;6.834;2022-07-23T14:12:38;3.85;;;2.70;;
57025;SDS011;43961;52.940;6.834;2022-07-23T14:15:04;3.22;;;2.92;;
57025;SDS011;43961;52.940;6.834;2022-07-23T14:19:58;4.25;;;2.70;;
57025;SDS011;43961;52.940;6.834;2022-07-23T14:22:24;2.70;;;2.40;;
57025;SDS011;43961;52.940;6.834;2022-07-23T14:24:50;4.85;;;3.35;;
57025;SDS011;43961;52.940;6.834;2022-07-23T14:27:16;3.55;;;2.63;;
57025;SDS011;43961;52.940;6.834;2022-07-23T14:29:42;4.60;;;2.33;;
57025;SDS011;43961;52.940;6.834;2022-07-23T14:32:07;10.50;;;3.47;;
57025;SDS011;43961;52.940;6.834;2022-07-23T14:34:33;14.05;;;2.92;;
57025;SDS011;43961;52.940;6.834;2022-07-23T14:37:00;2.65;;;2.45;;
57025;SDS011;43961;52.940;6.834;2022-07-23T14:39:26;26.67;;;3.50;;
57025;SDS011;43961;52.940;6.834;2022-07-23T14:41:51;5.10;;;3.55;;
57025;SDS011;43961;52.940;6.834;2022-07-23T14:44:17;8.80;;;3.60;;
57025;SDS011;43961;52.940;6.834;2022-07-23T14:46:43;12.95;;;3.58;;
57025;SDS011;43961;52.940;6.834;2022-07-23T14:49:09;3.25;;;2.92;;
57025;SDS011;43961;52.940;6.834;2022-07-23T14:51:35;3.58;;;2.75;;
57025;SDS011;43961;52.940;6.834;2022-07-23T14:54:01;3.53;;;3.22;;
57025;SDS011;43961;52.940;6.834;2022-07-23T14:56:28;2.67;;;2.43;;
57025;SDS011;43961;52.940;6.834;2022-07-23T14:58:54;3.10;;;2.78;;
57025;SDS011;43961;52.940;6.834;2022-07-23T15:01:21;3.35;;;2.70;;
57025;SDS011;43961;52.940;6.834;2022-07-23T15:03:48;3.45;;;2.92;;
57025;SDS011;43961;52.940;6.834;2022-07-23T15:06:15;3.95;;;2.60;;
57025;SDS011;43961;52.940;6.834;2022-07-23T15:08:41;2.83;;;2.58;;
57025;SDS011;43961;52.940;6.834;2022-07-23T15:11:07;4.78;;;2.95;;
57025;SDS011;43961;52.940;6.834;2022-07-23T15:13:34;2.63;;;2.50;;
57025;SDS011;43961;52.940;6.834;2022-07-23T15:16:02;3.97;;;2.65;;
57025;SDS011;43961;52.940;6.834;2022-07-23T15:18:30;3.53;;;3.22;;
57025;SDS011;43961;52.940;6.834;2022-07-23T15:20:55;3.38;;;2.47;;
57025;SDS011;43961;52.940;6.834;2022-07-23T15:23:21;2.80;;;2.47;;
57025;SDS011;43961;52.940;6.834;2022-07-23T15:25:47;2.60;;;2.40;;
57025;SDS011;43961;52.940;6.834;2022-07-23T15:28:13;2.90;;;2.65;;
57025;SDS011;43961;52.940;6.834;2022-07-23T15:30:38;5.00;;;2.97;;
57025;SDS011;43961;52.940;6.834;2022-07-23T15:33:04;3.28;;;2.97;;
57025;SDS011;43961;52.940;6.834;2022-07-23T15:35:31;5.30;;;2.83;;
57025;SDS011;43961;52.940;6.834;2022-07-23T15:37:57;4.03;;;2.60;;
57025;SDS011;43961;52.940;6.834;2022-07-23T15:40:23;4.78;;;3.03;;
57025;SDS011;43961;52.940;6.834;2022-07-23T15:42:49;3.35;;;2.97;;